createdAt,value
2023-01-06T00:01:18.787Z,101697.72
2023-01-06T00:03:53.973Z,101695.06
2023-01-06T00:06:27.548Z,101692.38
2023-01-06T00:09:01.031Z,101694.16
2023-01-06T00:11:28.429Z,101693.28
2023-01-06T00:13:56.375Z,101687.13
2023-01-06T00:16:24.046Z,101683.66
2023-01-06T00:18:59.429Z,101681.84
2023-01-06T00:21:26.970Z,101676.59
2023-01-06T00:23:54.393Z,101673.06
2023-01-06T00:26:22.125Z,101674.81
2023-01-06T00:28:53.204Z,101667.78
2023-01-06T00:31:20.229Z,101669.53
2023-01-06T00:33:47.281Z,101660.75
2023-01-06T00:36:15.142Z,101660.75
2023-01-06T00:38:42.961Z,101668.66
2023-01-06T00:41:34.509Z,101673.03
2023-01-06T00:44:02.361Z,101667.75
2023-01-06T00:46:31.479Z,101658.97
2023-01-06T00:49:04.978Z,101668.66
2023-01-06T00:51:34.236Z,101666.91
2023-01-06T00:54:01.936Z,101659.88
2023-01-06T00:56:29.072Z,101667.78
2023-01-06T00:58:56.078Z,101664.25
2023-01-06T01:01:23.187Z,101664.25
2023-01-06T01:03:51.198Z,101669.53
2023-01-06T01:06:18.459Z,101662.50
2023-01-06T01:08:45.568Z,101657.25
2023-01-06T01:11:36.556Z,101662.50
2023-01-06T01:14:03.870Z,101661.63
2023-01-06T01:16:31.621Z,101657.22
2023-01-06T01:18:59.670Z,101654.59
2023-01-06T01:21:26.757Z,101650.22
2023-01-06T01:23:53.774Z,101651.97
2023-01-06T01:26:20.952Z,101652.84
2023-01-06T01:28:48.074Z,101650.16
2023-01-06T01:31:16.555Z,101642.31
2023-01-06T01:33:44.062Z,101638.81
2023-01-06T01:36:15.385Z,101641.44
2023-01-06T01:38:42.685Z,101637.91
2023-01-06T01:41:22.729Z,101633.47
2023-01-06T01:43:56.384Z,101643.19
2023-01-06T01:46:38.587Z,101637.91
2023-01-06T01:49:13.867Z,101644.06
2023-01-06T01:51:45.843Z,101624.75
2023-01-06T01:54:27.358Z,101623.81
2023-01-06T01:57:11.717Z,101622.94
2023-01-06T01:59:41.029Z,101613.28
2023-01-06T02:02:09.323Z,101608.88
2023-01-06T02:04:42.177Z,101610.63
2023-01-06T02:07:10.185Z,101605.34
2023-01-06T02:10:19.760Z,101593.94
2023-01-06T02:12:50.898Z,101595.69
2023-01-06T02:15:32.368Z,101594.78
2023-01-06T02:18:34.578Z,101589.56
2023-01-06T02:21:46.385Z,101597.44
2023-01-06T02:24:37.856Z,101593.94
2023-01-06T02:27:16.841Z,101594.81
2023-01-06T02:30:08.422Z,101600.97
2023-01-06T02:33:21.298Z,101590.44
2023-01-06T02:35:51.165Z,101579.03
2023-01-06T02:38:34.861Z,101577.28
2023-01-06T02:41:29.755Z,101572.91
2023-01-06T02:44:11.403Z,101560.63
2023-01-06T02:47:15.238Z,101563.25
2023-01-06T02:50:00.445Z,101555.34
2023-01-06T02:53:04.664Z,101552.72
2023-01-06T02:55:47.405Z,101545.72
2023-01-06T02:58:35.456Z,101532.53
2023-01-06T03:01:45.821Z,101535.19
2023-01-06T03:04:22.615Z,101532.53
2023-01-06T03:06:52.693Z,101530.78
2023-01-06T03:09:27.968Z,101528.16
2023-01-06T03:11:55.051Z,101526.41
2023-01-06T03:14:39.241Z,101528.22
2023-01-06T03:17:06.455Z,101540.50
2023-01-06T03:19:34.084Z,101539.63
2023-01-06T03:22:03.038Z,101539.63
2023-01-06T03:24:30.186Z,101533.50
2023-01-06T03:26:58.498Z,101524.72
2023-01-06T03:29:26.064Z,101522.97
2023-01-06T03:32:13.017Z,101521.22
2023-01-06T03:35:56.185Z,101521.22
2023-01-06T03:38:35.474Z,101528.25
2023-01-06T03:42:24.507Z,101530.00
2023-01-06T03:45:50.758Z,101522.09
2023-01-06T03:48:59.810Z,101516.00
2023-01-06T03:51:55.315Z,101508.06
2023-01-06T03:55:05.748Z,101518.63
2023-01-06T03:57:40.663Z,101525.66
2023-01-06T04:00:26.227Z,101525.66
2023-01-06T04:02:53.373Z,101516.84
2023-01-06T04:05:27.202Z,101510.72
2023-01-06T04:07:54.961Z,101514.22
2023-01-06T04:10:23.097Z,101508.06
2023-01-06T04:12:50.903Z,101501.03
2023-01-06T04:15:22.467Z,101500.16
2023-01-06T04:17:50.165Z,101497.53
2023-01-06T04:20:21.605Z,101495.75
2023-01-06T04:22:48.696Z,101489.63
2023-01-06T04:25:15.771Z,101493.13
2023-01-06T04:27:44.001Z,101491.38
2023-01-06T04:30:12.152Z,101480.84
2023-01-06T04:32:39.771Z,101486.13
2023-01-06T04:35:08.259Z,101473.81
2023-01-06T04:37:35.791Z,101465.03
2023-01-06T04:40:03.753Z,101468.56
2023-01-06T04:42:50.752Z,101458.06
2023-01-06T04:45:17.734Z,101443.16
2023-01-06T04:47:45.437Z,101448.44
2023-01-06T04:50:12.861Z,101438.78
2023-01-06T04:52:39.865Z,101434.38
2023-01-06T04:55:07.236Z,101438.78
2023-01-06T04:57:34.252Z,101431.75
2023-01-06T05:00:01.228Z,101437.03
2023-01-06T05:02:28.259Z,101437.03
2023-01-06T05:04:55.273Z,101425.59
2023-01-06T05:07:22.382Z,101428.22
2023-01-06T05:09:49.417Z,101425.59
2023-01-06T05:12:16.519Z,101429.97
2023-01-06T05:14:43.528Z,101422.97
2023-01-06T05:17:10.562Z,101422.97
2023-01-06T05:19:37.743Z,101415.88
2023-01-06T05:22:04.745Z,101404.47
2023-01-06T05:24:31.750Z,101416.75
2023-01-06T05:26:58.720Z,101421.13
2023-01-06T05:29:25.747Z,101422.84
2023-01-06T05:31:52.766Z,101417.56
2023-01-06T05:34:19.824Z,101420.22
2023-01-06T05:36:46.811Z,101422.84
2023-01-06T05:39:13.747Z,101422.84
2023-01-06T05:41:40.745Z,101424.66
2023-01-06T05:44:07.792Z,101433.44
2023-01-06T05:46:34.843Z,101436.06
2023-01-06T05:49:02.867Z,101440.47
2023-01-06T05:51:30.119Z,101438.72
2023-01-06T05:53:57.216Z,101436.97
2023-01-06T05:56:24.638Z,101442.22
2023-01-06T05:58:54.359Z,101436.97
2023-01-06T06:01:31.367Z,101442.28
2023-01-06T06:03:59.408Z,101437.84
2023-01-06T06:06:28.895Z,101448.44
2023-01-06T06:08:56.069Z,101436.13
2023-01-06T06:11:23.217Z,101435.25
2023-01-06T06:13:54.807Z,101437.91
2023-01-06T06:16:26.196Z,101431.75
2023-01-06T06:18:58.967Z,101437.03
2023-01-06T06:21:29.218Z,101437.94
2023-01-06T06:23:58.636Z,101436.19
2023-01-06T06:26:26.274Z,101438.84
2023-01-06T06:28:53.336Z,101422.16
2023-01-06T06:31:27.571Z,101432.69
2023-01-06T06:33:57.870Z,101436.22
2023-01-06T06:36:25.233Z,101444.09
2023-01-06T06:38:53.486Z,101433.56
2023-01-06T06:41:22.136Z,101440.59
2023-01-06T06:43:50.344Z,101439.72
2023-01-06T06:46:18.829Z,101443.22
2023-01-06T06:48:46.162Z,101444.09
2023-01-06T06:51:17.128Z,101440.59
2023-01-06T06:53:44.947Z,101444.97
2023-01-06T06:56:13.939Z,101442.34
2023-01-06T06:58:40.959Z,101449.38
2023-01-06T07:01:11.766Z,101440.59
2023-01-06T07:03:39.819Z,101448.47
2023-01-06T07:06:10.159Z,101451.97
2023-01-06T07:08:37.246Z,101454.59
2023-01-06T07:11:05.186Z,101458.09
2023-01-06T07:13:32.201Z,101452.84
2023-01-06T07:15:59.278Z,101468.63
2023-01-06T07:18:26.368Z,101466.00
2023-01-06T07:20:54.116Z,101466.88
2023-01-06T07:23:22.809Z,101473.91
2023-01-06T07:25:55.155Z,101466.00
2023-01-06T07:28:22.739Z,101474.78
2023-01-06T07:30:50.856Z,101478.34
2023-01-06T07:33:18.289Z,101466.91
2023-01-06T07:35:45.381Z,101465.16
2023-01-06T07:38:12.495Z,101478.28
2023-01-06T07:40:39.846Z,101472.16
2023-01-06T07:43:11.737Z,101476.53
2023-01-06T07:45:38.800Z,101474.78
2023-01-06T07:48:06.401Z,101473.00
2023-01-06T07:50:33.838Z,101487.94
2023-01-06T07:53:03.198Z,101496.72
2023-01-06T07:55:30.516Z,101493.22
2023-01-06T07:57:58.911Z,101502.84
2023-01-06T08:00:26.595Z,101498.47
2023-01-06T08:02:54.329Z,101495.78
2023-01-06T08:05:21.420Z,101516.81
2023-01-06T08:07:48.616Z,101520.31
2023-01-06T08:10:15.964Z,101521.19
2023-01-06T08:12:42.982Z,101526.41
2023-01-06T08:15:10.399Z,101519.38
2023-01-06T08:17:37.440Z,101524.69
2023-01-06T08:20:04.980Z,101521.13
2023-01-06T08:22:31.986Z,101527.28
2023-01-06T08:24:58.995Z,101525.53
2023-01-06T08:27:27.790Z,101531.66
2023-01-06T08:29:55.490Z,101535.22
2023-01-06T08:32:22.736Z,101527.34
2023-01-06T08:34:49.888Z,101539.66
2023-01-06T08:37:17.028Z,101534.41
2023-01-06T08:39:45.102Z,101545.84
2023-01-06T08:42:12.589Z,101544.09
2023-01-06T08:44:39.883Z,101545.88
2023-01-06T08:47:07.015Z,101551.16
2023-01-06T08:49:34.101Z,101553.88
2023-01-06T08:52:01.146Z,101564.47
2023-01-06T08:54:29.608Z,101567.22
2023-01-06T08:56:57.490Z,101572.63
2023-01-06T08:59:24.719Z,101576.97
2023-01-06T09:01:52.396Z,101583.97
2023-01-06T09:04:19.935Z,101587.50
2023-01-06T09:06:47.550Z,101580.44
2023-01-06T09:09:14.762Z,101577.81
2023-01-06T09:11:44.665Z,101590.13
2023-01-06T09:14:16.298Z,101587.50
2023-01-06T09:16:43.399Z,101589.22
2023-01-06T09:19:10.923Z,101594.53
2023-01-06T09:21:38.323Z,101598.97
2023-01-06T09:24:05.783Z,101594.59
2023-01-06T09:26:32.884Z,101601.63
2023-01-06T09:28:59.883Z,101613.94
2023-01-06T09:31:27.118Z,101615.72
2023-01-06T09:33:54.354Z,101619.25
2023-01-06T09:36:22.218Z,101631.56
2023-01-06T09:38:51.493Z,101629.00
2023-01-06T09:41:42.615Z,101632.56
2023-01-06T09:44:25.514Z,101637.88
2023-01-06T09:46:53.132Z,101642.31
2023-01-06T09:49:42.448Z,101635.34
2023-01-06T09:52:48.626Z,101636.25
2023-01-06T09:55:36.581Z,101633.66
2023-01-06T09:58:21.971Z,101637.34
2023-01-06T10:00:55.889Z,101637.38
2023-01-06T10:03:26.617Z,101641.75
2023-01-06T10:06:18.271Z,101642.63
2023-01-06T10:08:54.566Z,101648.81
2023-01-06T10:11:43.438Z,101649.78
2023-01-06T10:14:42.199Z,101641.13
2023-01-06T10:17:32.457Z,101640.41
2023-01-06T10:20:50.682Z,101640.41
2023-01-06T10:23:45.587Z,101645.66
2023-01-06T10:26:33.241Z,101635.97
2023-01-06T10:29:13.050Z,101635.97
2023-01-06T10:31:43.913Z,101637.69
2023-01-06T10:34:24.678Z,101644.69
2023-01-06T10:37:36.382Z,101649.03
2023-01-06T10:40:26.330Z,101648.13
2023-01-06T10:43:08.880Z,101648.09
2023-01-06T10:45:42.176Z,101640.19
2023-01-06T10:48:28.814Z,101644.56
2023-01-06T10:50:58.041Z,101640.16
2023-01-06T10:53:25.267Z,101638.38
2023-01-06T10:55:58.233Z,101635.78
2023-01-06T10:58:52.877Z,101638.53
2023-01-06T11:01:29.558Z,101636.88
2023-01-06T11:04:09.538Z,101630.72
2023-01-06T11:07:03.800Z,101629.91
2023-01-06T11:09:36.837Z,101641.41
2023-01-06T11:12:20.059Z,101631.69
2023-01-06T11:15:03.133Z,101639.63
2023-01-06T11:17:31.535Z,101631.72
2023-01-06T11:20:14.802Z,101633.47
2023-01-06T11:22:43.985Z,101622.00
2023-01-06T11:25:32.532Z,101622.91
2023-01-06T11:28:20.830Z,101622.03
2023-01-06T11:31:13.572Z,101629.06
2023-01-06T11:34:17.400Z,101630.81
2023-01-06T11:36:47.232Z,101622.88
2023-01-06T11:39:24.910Z,101636.09
2023-01-06T11:41:55.162Z,101632.56
2023-01-06T11:44:39.571Z,101626.41
2023-01-06T11:47:23.102Z,101623.72
2023-01-06T11:49:55.107Z,101621.97
2023-01-06T11:52:32.629Z,101615.81
2023-01-06T11:55:07.083Z,101614.94
2023-01-06T11:57:41.949Z,101607.00
2023-01-06T12:00:53.569Z,101601.72
2023-01-06T12:03:35.288Z,101604.38
2023-01-06T12:06:14.601Z,101597.31
2023-01-06T12:09:06.449Z,101590.25
2023-01-06T12:11:55.587Z,101597.28
2023-01-06T12:14:29.453Z,101592.00
2023-01-06T12:17:16.787Z,101586.72
2023-01-06T12:20:06.073Z,101584.97
2023-01-06T12:22:57.619Z,101586.75
2023-01-06T12:25:48.635Z,101576.19
2023-01-06T12:28:35.973Z,101586.75
2023-01-06T12:31:08.835Z,101573.53
2023-01-06T12:33:52.016Z,101573.53
2023-01-06T12:36:57.386Z,101570.88
2023-01-06T12:39:33.593Z,101585.84
2023-01-06T12:42:50.277Z,101584.97
2023-01-06T12:45:56.601Z,101582.34
2023-01-06T12:48:44.515Z,101578.78
2023-01-06T12:51:26.389Z,101585.84
2023-01-06T12:54:17.683Z,101583.22
2023-01-06T12:57:11.946Z,101586.78
2023-01-06T13:00:03.661Z,101590.28
2023-01-06T13:02:52.188Z,101591.16
2023-01-06T13:05:53.158Z,101590.28
2023-01-06T13:09:07.105Z,101593.78
2023-01-06T13:12:38.897Z,101590.28
2023-01-06T13:15:36.743Z,101589.38
2023-01-06T13:18:23.015Z,101586.72
2023-01-06T13:21:13.744Z,101596.41
2023-01-06T13:24:04.148Z,101600.84
2023-01-06T13:26:52.808Z,101603.50
2023-01-06T13:30:09.541Z,101592.91
2023-01-06T13:33:02.162Z,101592.94
2023-01-06T13:36:21.276Z,101586.75
2023-01-06T13:39:12.898Z,101592.03
2023-01-06T13:41:44.076Z,101590.28
2023-01-06T13:44:20.785Z,101577.94
2023-01-06T13:46:52.464Z,101581.47
2023-01-06T13:49:20.096Z,101582.31
2023-01-06T13:51:50.651Z,101579.69
2023-01-06T13:54:39.451Z,101577.94
2023-01-06T13:57:21.697Z,101579.72
2023-01-06T14:00:05.192Z,101577.97
2023-01-06T14:02:34.908Z,101580.56
2023-01-06T14:05:05.878Z,101570.88
2023-01-06T14:07:49.032Z,101574.44
2023-01-06T14:10:40.365Z,101577.94
2023-01-06T14:13:26.145Z,101583.22
2023-01-06T14:16:06.500Z,101582.38
2023-01-06T14:18:51.767Z,101585.00
2023-01-06T14:21:26.609Z,101584.13
2023-01-06T14:24:19.525Z,101586.75
2023-01-06T14:27:03.007Z,101587.63
2023-01-06T14:29:42.360Z,101585.88
2023-01-06T14:32:35.156Z,101581.47
2023-01-06T14:35:12.072Z,101581.47
2023-01-06T14:37:50.753Z,101575.31
2023-01-06T14:40:38.599Z,101574.38
2023-01-06T14:43:34.371Z,101571.75
2023-01-06T14:46:20.378Z,101563.78
2023-01-06T14:49:01.913Z,101564.69
2023-01-06T14:51:31.480Z,101562.00
2023-01-06T14:54:32.700Z,101567.28
2023-01-06T14:57:03.348Z,101583.97
2023-01-06T14:59:30.527Z,101584.84
2023-01-06T15:02:15.676Z,101587.50
2023-01-06T15:04:44.149Z,101588.38
2023-01-06T15:07:21.482Z,101575.09
2023-01-06T15:09:51.170Z,101587.44
2023-01-06T15:12:31.376Z,101575.06
2023-01-06T15:15:24.041Z,101583.84
2023-01-06T15:17:53.974Z,101569.72
2023-01-06T15:20:35.437Z,101555.66
2023-01-06T15:23:02.971Z,101552.97
2023-01-06T15:25:31.931Z,101545.88
2023-01-06T15:27:59.064Z,101566.94
2023-01-06T15:30:30.855Z,101573.06
2023-01-06T15:32:58.173Z,101566.84
2023-01-06T15:35:31.953Z,101560.63
2023-01-06T15:38:24.645Z,101568.50
2023-01-06T15:40:52.657Z,101564.91
2023-01-06T15:43:24.626Z,101570.16
2023-01-06T15:46:07.242Z,101572.81
2023-01-06T15:48:38.439Z,101559.59
2023-01-06T15:51:18.625Z,101578.91
2023-01-06T15:53:54.014Z,101563.03
2023-01-06T15:56:28.339Z,101571.75
2023-01-06T15:58:58.150Z,101574.31
2023-01-06T16:01:25.506Z,101577.81
2023-01-06T16:03:59.856Z,101572.50
2023-01-06T16:06:33.731Z,101571.56
2023-01-06T16:09:19.544Z,101568.00
2023-01-06T16:12:03.236Z,101567.97
2023-01-06T16:14:37.120Z,101563.56
2023-01-06T16:17:24.065Z,101561.78
2023-01-06T16:20:00.207Z,101561.78
2023-01-06T16:22:46.438Z,101567.09
2023-01-06T16:25:33.154Z,101558.31
2023-01-06T16:28:04.475Z,101551.28
2023-01-06T16:30:39.275Z,101557.44
2023-01-06T16:33:06.328Z,101560.88
2023-01-06T16:35:34.827Z,101563.50
2023-01-06T16:38:02.193Z,101555.59
2023-01-06T16:40:30.381Z,101564.38
2023-01-06T16:43:01.408Z,101573.16
2023-01-06T16:45:31.598Z,101567.88
2023-01-06T16:47:59.245Z,101562.63
2023-01-06T16:50:34.258Z,101559.13
2023-01-06T16:53:10.342Z,101557.38
2023-01-06T16:55:40.032Z,101551.22
2023-01-06T16:58:28.925Z,101553.84
2023-01-06T17:01:01.213Z,101546.81
2023-01-06T17:03:37.943Z,101561.75
2023-01-06T17:06:19.370Z,101561.75
2023-01-06T17:08:47.216Z,101567.03
2023-01-06T17:11:25.436Z,101562.69
2023-01-06T17:13:57.860Z,101569.75
2023-01-06T17:16:29.654Z,101562.72
2023-01-06T17:19:20.216Z,101576.88
2023-01-06T17:21:54.909Z,101565.53
2023-01-06T17:24:25.792Z,101562.03
2023-01-06T17:26:58.972Z,101557.69
2023-01-06T17:29:32.902Z,101560.31
2023-01-06T17:32:05.232Z,101558.56
2023-01-06T17:34:35.899Z,101558.56
2023-01-06T17:37:22.093Z,101556.81
2023-01-06T17:39:49.847Z,101561.22
2023-01-06T17:42:16.814Z,101560.34
2023-01-06T17:44:58.772Z,101559.47
2023-01-06T17:47:43.321Z,101556.84
2023-01-06T17:50:29.820Z,101573.56
2023-01-06T17:53:50.682Z,101570.94
2023-01-06T17:56:18.893Z,101569.16
2023-01-06T17:58:46.142Z,101563.91
2023-01-06T18:01:24.581Z,101563.03
2023-01-06T18:03:53.796Z,101569.19
2023-01-06T18:06:30.279Z,101565.66
2023-01-06T18:09:14.250Z,101568.31
2023-01-06T18:11:49.721Z,101567.44
2023-01-06T18:14:33.475Z,101571.84
2023-01-06T18:17:15.329Z,101573.59
2023-01-06T18:19:42.539Z,101565.69
2023-01-06T18:22:17.307Z,101579.78
2023-01-06T18:24:46.905Z,101573.59
2023-01-06T18:27:17.115Z,101567.44
2023-01-06T18:29:45.131Z,101561.28
2023-01-06T18:32:21.448Z,101563.03
2023-01-06T18:35:10.765Z,101559.47
2023-01-06T18:37:37.764Z,101559.47
2023-01-06T18:40:11.838Z,101564.72
2023-01-06T18:42:44.577Z,101556.81
2023-01-06T18:45:11.672Z,101555.06
2023-01-06T18:47:42.626Z,101562.06
2023-01-06T18:50:28.138Z,101563.84
2023-01-06T18:53:26.758Z,101562.94
2023-01-06T18:56:30.205Z,101565.53
2023-01-06T18:58:58.944Z,101556.75
2023-01-06T19:01:48.592Z,101560.28
2023-01-06T19:04:22.130Z,101565.53
2023-01-06T19:07:15.652Z,101567.28
2023-01-06T19:09:48.786Z,101562.00
2023-01-06T19:12:33.902Z,101548.84
2023-01-06T19:15:23.804Z,101557.63
2023-01-06T19:17:51.982Z,101555.88
2023-01-06T19:32:36.143Z,101554.13
2023-01-06T19:35:31.386Z,101546.22
2023-01-06T19:38:18.083Z,101558.53
2023-01-06T19:40:45.378Z,101555.94
2023-01-06T19:43:19.725Z,101560.31
2023-01-06T19:45:46.800Z,101558.56
2023-01-06T19:48:25.741Z,101559.44
2023-01-06T19:51:29.924Z,101549.78
2023-01-06T19:54:11.934Z,101552.44
2023-01-06T19:56:42.209Z,101558.56
2023-01-06T19:59:33.019Z,101560.34
2023-01-06T20:02:31.714Z,101548.91
2023-01-06T20:04:58.942Z,101547.16
2023-01-06T20:07:25.981Z,101558.56
2023-01-06T20:09:54.220Z,101563.84
2023-01-06T20:12:21.435Z,101559.47
2023-01-06T20:14:48.461Z,101557.75
2023-01-06T20:17:17.632Z,101563.03
2023-01-06T20:19:44.645Z,101567.41
2023-01-06T20:22:11.703Z,101561.28
2023-01-06T20:24:39.059Z,101560.41
2023-01-06T20:27:06.249Z,101557.78
2023-01-06T20:29:33.284Z,101563.94
2023-01-06T20:32:00.369Z,101570.06
2023-01-06T20:34:28.623Z,101567.44
2023-01-06T20:36:55.670Z,101560.44
2023-01-06T20:39:22.765Z,101557.81
2023-01-06T20:41:50.956Z,101553.44
2023-01-06T20:44:17.939Z,101549.91
2023-01-06T20:46:44.910Z,101557.81
2023-01-06T20:49:13.191Z,101547.22
2023-01-06T20:51:40.257Z,101544.59
2023-01-06T20:54:07.422Z,101545.47
2023-01-06T20:56:34.420Z,101543.72
2023-01-06T20:59:01.568Z,101539.31
2023-01-06T21:01:28.642Z,101542.81
2023-01-06T21:03:55.885Z,101528.75
2023-01-06T21:06:23.064Z,101536.66
2023-01-06T21:08:50.147Z,101537.50
2023-01-06T21:11:17.235Z,101525.19
2023-01-06T21:13:44.612Z,101530.44
2023-01-06T21:16:11.788Z,101532.22
2023-01-06T21:18:38.827Z,101529.56
2023-01-06T21:21:06.447Z,101527.81
2023-01-06T21:23:33.441Z,101533.91
2023-01-06T21:26:00.537Z,101525.13
2023-01-06T21:28:27.589Z,101523.38
2023-01-06T21:30:57.812Z,101519.88
2023-01-06T21:33:24.968Z,101526.00
2023-01-06T21:35:52.146Z,101533.91
2023-01-06T21:38:19.337Z,101526.81
2023-01-06T21:40:46.431Z,101529.34
2023-01-06T21:43:13.812Z,101520.53
2023-01-06T21:45:44.997Z,101524.88
2023-01-06T21:48:14.020Z,101525.69
2023-01-06T21:50:43.865Z,101524.78
2023-01-06T21:53:12.300Z,101521.22
2023-01-06T21:55:40.496Z,101525.59
2023-01-06T21:58:07.817Z,101530.84
2023-01-06T22:00:34.796Z,101525.56
2023-01-06T22:03:01.906Z,101522.94
2023-01-06T22:05:29.149Z,101527.34
2023-01-06T22:07:56.412Z,101524.69
2023-01-06T22:10:25.840Z,101521.19
2023-01-06T22:12:56.390Z,101525.59
2023-01-06T22:15:23.607Z,101527.34
2023-01-06T22:17:54.646Z,101524.72
2023-01-06T22:20:21.668Z,101522.09
2023-01-06T22:22:49.079Z,101525.59
2023-01-06T22:25:18.848Z,101522.97
2023-01-06T22:27:48.602Z,101526.47
2023-01-06T22:30:15.712Z,101528.22
2023-01-06T22:32:47.888Z,101524.72
2023-01-06T22:35:17.370Z,101526.47
2023-01-06T22:37:44.945Z,101523.91
2023-01-06T22:40:14.877Z,101529.13
2023-01-06T22:42:43.178Z,101522.97
2023-01-06T22:45:11.571Z,101524.72
2023-01-06T22:47:38.709Z,101508.81
2023-01-06T22:50:06.830Z,101513.16
2023-01-06T22:52:33.911Z,101507.81
2023-01-06T22:55:00.973Z,101510.41
2023-01-06T22:57:28.029Z,101512.09
2023-01-06T22:59:55.096Z,101507.69
2023-01-06T23:02:22.223Z,101517.28
2023-01-06T23:04:49.323Z,101506.72
2023-01-06T23:07:16.686Z,101514.59
2023-01-06T23:09:43.762Z,101504.88
2023-01-06T23:12:10.997Z,101508.38
2023-01-06T23:14:38.012Z,101518.00
2023-01-06T23:17:05.397Z,101505.66
2023-01-06T23:19:32.432Z,101512.69
2023-01-06T23:21:59.457Z,101520.56
2023-01-06T23:24:26.535Z,101510.91
2023-01-06T23:26:53.643Z,101509.16
2023-01-06T23:29:20.625Z,101517.94
2023-01-06T23:31:47.927Z,101517.06
2023-01-06T23:34:17.791Z,101514.44
2023-01-06T23:36:45.668Z,101510.13
2023-01-06T23:39:15.110Z,101511.03
2023-01-06T23:41:42.457Z,101509.34
2023-01-06T23:44:17.630Z,101512.88
2023-01-06T23:46:45.538Z,101512.00
2023-01-06T23:49:16.682Z,101506.81
2023-01-06T23:51:44.479Z,101507.69
2023-01-06T23:54:12.744Z,101506.81
2023-01-06T23:56:40.134Z,101499.78
2023-01-06T23:59:10.454Z,101503.28
